Terminal Aerodrome Forecast
Issued by NWS

Home | Current Version | Previous Version | Text Only | Print | Product List | Glossary On
Versions: 1 2 3 4 5 6 7 8 9 10 11 12 13 14 15 16
000
FTUS43 KICT 251100
TAFCNU
TAF
KCNU 251137Z 2512/2612 00000KT 1/2SM FG SCT003
     FM251400 01003KT 3SM BR SKC
     FM251530 05004KT P6SM SKC
     FM252000 09007KT P6SM SKC=

USA.gov is the U.S. government's official web portal to all federal, state and local government web resources and services.